ENVR/VRY METAR and TAF weather

Enter ICAO airport designator
Station Type Date Time Source
ENVR METAR 2019/12/13 14:50 UTC NOAA

ENVR 131450Z 18023KT CAVOK 05/M00 Q0987


Station Type Date Time Source
ENVR Decoded METAR 2019/12/13 14:50 UTC NOAA

Station name not available
Dec 13, 2019 - 09:50 AM EST / 2019.12.13 1450 UTC
Wind: from the S (180 degrees) at 26 MPH (23 KT):0
Visibility: greater than 7 mile(s):0
Temperature: 41 F (5 C)
Dew Point: 32 F (0 C)
Relative Humidity: 70%
Pressure (altimeter): 29.15 in. Hg (0987 hPa)
ob: ENVR 131450Z 18023KT CAVOK 05/M00 Q0987
cycle: 15

Station Type Date Time Source
ENVR TAF UTC NOAA

Error!

Example: see airport list